Time;durP1;ratioP1;P1;durP2;ratioP2;P2;SDS_P1;SDS_P2;PMS_P1;PMS_P2;Temp;Humidity;BMP_temperature;BMP_pressure;BME280_temperature;BME280_humidity;BME280_pressure;Samples;Min_cycle;Max_cycle;Signal;HPM_P1;HPM_P2
2022/11/01 00:00:49;;;;;;;13.53;11.33;;;17.60;68.80;;;;;;5047985;28;20312;-52
2022/11/01 00:03:15;;;;;;;13.80;11.77;;;17.70;68.80;;;;;;5048393;28;20197;-54
2022/11/01 00:05:40;;;;;;;13.57;10.63;;;17.70;68.80;;;;;;5048900;28;20479;-55
2022/11/01 00:08:06;;;;;;;12.37;10.77;;;17.50;69.10;;;;;;5047913;28;20192;-55
2022/11/01 00:10:31;;;;;;;11.60;10.40;;;17.40;69.90;;;;;;5049591;28;20640;-55
2022/11/01 00:12:57;;;;;;;13.03;10.63;;;17.50;69.70;;;;;;5049221;28;20196;-56
2022/11/01 00:15:22;;;;;;;14.93;12.00;;;17.40;69.80;;;;;;5047795;28;20193;-52
2022/11/01 00:17:48;;;;;;;13.20;11.03;;;17.20;70.50;;;;;;5049330;28;20264;-55
2022/11/01 00:20:14;;;;;;;11.70;10.50;;;17.30;71.10;;;;;;5047298;28;20581;-57
2022/11/01 00:22:39;;;;;;;15.10;11.17;;;17.30;70.90;;;;;;5051566;28;20239;-54
2022/11/01 00:25:05;;;;;;;13.23;10.30;;;17.30;70.70;;;;;;5048892;28;20191;-54
2022/11/01 00:27:31;;;;;;;15.03;11.80;;;17.20;70.90;;;;;;5048603;28;20628;-54
2022/11/01 00:29:56;;;;;;;15.07;10.67;;;17.30;71.50;;;;;;5050424;28;20196;-54
2022/11/01 00:32:22;;;;;;;13.20;11.30;;;17.30;70.80;;;;;;5046922;28;20276;-54
2022/11/01 00:34:47;;;;;;;14.73;10.30;;;17.30;70.50;;;;;;5047550;28;20251;-55
2022/11/01 00:37:13;;;;;;;21.43;11.17;;;17.20;70.90;;;;;;5042830;28;20279;-54
2022/11/01 00:39:39;;;;;;;14.53;10.90;;;17.20;71.20;;;;;;5046765;28;20550;-51
2022/11/01 00:42:04;;;;;;;15.40;9.37;;;17.10;71.60;;;;;;5046428;28;20606;-54
2022/11/01 00:44:30;;;;;;;16.57;12.03;;;17.10;71.90;;;;;;5046975;28;20193;-54
2022/11/01 00:46:55;;;;;;;15.03;11.80;;;17.10;71.50;;;;;;5040317;28;20236;-54
2022/11/01 00:49:21;;;;;;;11.90;10.07;;;17.00;72.00;;;;;;5042190;28;20191;-53
2022/11/01 00:51:46;;;;;;;15.20;11.10;;;17.00;72.50;;;;;;5037382;28;20197;-52
2022/11/01 00:54:12;;;;;;;15.13;10.23;;;16.80;73.20;;;;;;5046062;28;20271;-51
2022/11/01 00:56:38;;;;;;;15.30;10.70;;;16.60;74.00;;;;;;5049328;28;20199;-55
2022/11/01 00:59:03;;;;;;;12.37;11.10;;;16.70;74.00;;;;;;5040905;28;20195;-51
2022/11/01 01:01:31;;;;;;;18.90;10.87;;;16.80;73.60;;;;;;5048930;28;20228;-56
2022/11/01 01:03:56;;;;;;;18.43;10.13;;;16.70;73.90;;;;;;5044514;28;20227;-53
2022/11/01 01:06:22;;;;;;;13.90;9.30;;;16.70;74.30;;;;;;5045859;28;20514;-55
2022/11/01 01:08:48;;;;;;;16.10;10.33;;;16.80;73.90;;;;;;5048478;28;20238;-54
2022/11/01 01:11:14;;;;;;;13.03;8.90;;;16.90;73.70;;;;;;5048176;28;20192;-55
2022/11/01 01:13:40;;;;;;;16.37;11.07;;;16.90;73.20;;;;;;5029149;28;20188;-54
2022/11/01 01:16:10;;;;;;;17.80;10.80;;;16.90;73.20;;;;;;5046034;28;20447;-54
2022/11/01 01:18:36;;;;;;;13.70;9.43;;;17.00;73.00;;;;;;5049905;28;20192;-54
2022/11/01 01:21:02;;;;;;;12.17;10.00;;;16.90;73.50;;;;;;5048810;28;20942;-55
2022/11/01 01:23:28;;;;;;;15.07;10.90;;;16.80;74.00;;;;;;5046659;28;20201;-54
2022/11/01 01:25:54;;;;;;;16.83;10.53;;;16.80;73.70;;;;;;5048876;28;20602;-54
2022/11/01 01:28:19;;;;;;;12.63;9.53;;;16.80;74.20;;;;;;5045851;28;20251;-55
2022/11/01 01:30:45;;;;;;;17.77;11.00;;;16.90;73.30;;;;;;5043671;28;20613;-54
2022/11/01 01:33:10;;;;;;;12.40;9.43;;;17.00;73.10;;;;;;5049504;28;20256;-54
2022/11/01 01:35:39;;;;;;;14.60;10.20;;;17.10;72.40;;;;;;5048308;28;20192;-54
2022/11/01 01:38:05;;;;;;;12.90;10.73;;;17.00;72.00;;;;;;5045298;28;20229;-55
2022/11/01 01:40:32;;;;;;;11.30;8.90;;;17.00;72.30;;;;;;5047603;28;20447;-53
2022/11/01 01:42:57;;;;;;;16.20;9.40;;;17.00;72.10;;;;;;5047144;28;20450;-55
2022/11/01 01:45:33;;;;;;;12.70;9.70;;;17.10;71.70;;;;;;5048258;28;20450;-53
2022/11/01 01:48:25;;;;;;;12.53;9.53;;;17.10;71.80;;;;;;5045735;28;20208;-54
2022/11/01 01:51:01;;;;;;;12.60;9.90;;;16.80;73.00;;;;;;5038939;28;20836;-54
2022/11/01 01:53:39;;;;;;;13.57;9.60;;;16.80;73.50;;;;;;5046043;28;20488;-54
2022/11/01 01:56:07;;;;;;;14.47;9.47;;;16.80;73.10;;;;;;5043810;28;20439;-55
2022/11/01 01:58:41;;;;;;;11.27;9.77;;;16.90;72.80;;;;;;5039924;28;20982;-54
2022/11/01 02:01:07;;;;;;;14.90;10.00;;;17.00;72.50;;;;;;5037130;28;20451;-55
2022/11/01 02:03:35;;;;;;;13.70;9.07;;;17.00;72.10;;;;;;5039618;28;20447;-54
2022/11/01 02:06:13;;;;;;;12.20;9.43;;;16.80;72.80;;;;;;5049849;28;20232;-55
2022/11/01 02:08:41;;;;;;;14.80;9.40;;;17.00;72.60;;;;;;5046363;28;20455;-52
2022/11/01 02:11:09;;;;;;;13.00;8.83;;;16.80;72.80;;;;;;5048281;28;20451;-55
2022/11/01 02:13:35;;;;;;;11.83;9.73;;;16.70;73.50;;;;;;5043694;28;20450;-55
2022/11/01 02:16:43;;;;;;;14.23;11.17;;;16.60;73.80;;;;;;5047086;28;20493;-54
2022/11/01 02:19:09;;;;;;;15.40;10.40;;;16.30;75.20;;;;;;4973439;28;20646;-53
2022/11/01 02:21:40;;;;;;;14.03;10.07;;;16.10;76.20;;;;;;5045489;28;20557;-55
2022/11/01 02:24:42;;;;;;;12.37;9.63;;;16.00;78.30;;;;;;5047541;28;20192;-53
2022/11/01 02:27:13;;;;;;;17.07;9.80;;;16.00;77.40;;;;;;4996373;28;20936;-54
2022/11/01 02:29:51;;;;;;;11.50;9.20;;;16.20;76.70;;;;;;5047384;28;20447;-54
2022/11/01 02:32:50;;;;;;;11.17;9.87;;;16.40;76.10;;;;;;5050937;28;20430;-54
2022/11/01 02:35:21;;;;;;;11.73;9.40;;;16.60;75.00;;;;;;5043536;28;20449;-56
2022/11/01 02:38:25;;;;;;;12.70;9.37;;;16.70;74.20;;;;;;5048607;28;21207;-56
2022/11/01 02:41:32;;;;;;;11.53;9.40;;;16.70;74.40;;;;;;5047872;28;20447;-54
2022/11/01 02:44:03;;;;;;;13.00;9.27;;;16.80;74.30;;;;;;5025812;28;20551;-55
2022/11/01 02:47:00;;;;;;;11.67;9.90;;;16.90;73.50;;;;;;5044688;28;20486;-54
2022/11/01 02:49:30;;;;;;;12.33;9.60;;;16.90;73.40;;;;;;5041432;28;20451;-55
2022/11/01 02:51:58;;;;;;;10.87;9.33;;;17.00;73.10;;;;;;5050093;28;20534;-54
2022/11/01 02:54:32;;;;;;;10.77;9.50;;;17.00;72.70;;;;;;5051080;28;20434;-54
2022/11/01 02:57:22;;;;;;;11.80;9.07;;;17.20;72.30;;;;;;5051159;28;20800;-51
2022/11/01 02:59:48;;;;;;;11.13;8.30;;;17.30;71.80;;;;;;5048250;28;20439;-54
2022/11/01 03:02:39;;;;;;;14.73;10.27;;;17.00;72.30;;;;;;5049926;28;20450;-54
2022/11/01 03:05:13;;;;;;;14.03;9.03;;;17.00;73.00;;;;;;5045006;28;20189;-54
2022/11/01 03:07:41;;;;;;;10.57;9.17;;;17.10;72.50;;;;;;5049208;28;20482;-54
2022/11/01 03:10:08;;;;;;;16.00;9.27;;;17.10;72.00;;;;;;5048191;28;20427;-55
2022/11/01 03:12:39;;;;;;;10.73;9.73;;;17.10;72.40;;;;;;5051857;28;20439;-55
2022/11/01 03:15:38;;;;;;;16.13;9.30;;;17.10;72.20;;;;;;5048687;28;20518;-55
2022/11/01 03:18:10;;;;;;;11.40;9.77;;;17.30;71.70;;;;;;5046533;28;20459;-55
2022/11/01 03:20:48;;;;;;;9.47;8.33;;;17.40;71.20;;;;;;5047921;28;21013;-54
2022/11/01 03:23:31;;;;;;;11.53;9.50;;;17.30;71.10;;;;;;5048652;28;20447;-55
2022/11/01 03:25:59;;;;;;;10.30;8.80;;;17.40;70.40;;;;;;5048437;28;20484;-55
2022/11/01 03:28:37;;;;;;;11.47;8.10;;;17.40;70.20;;;;;;5050580;28;20462;-55
2022/11/01 03:31:11;;;;;;;12.43;8.40;;;17.40;70.40;;;;;;5045332;28;20453;-54
2022/11/01 03:33:45;;;;;;;10.60;8.33;;;17.40;70.30;;;;;;5050515;28;20435;-55
2022/11/01 03:36:13;;;;;;;11.13;7.53;;;17.60;69.90;;;;;;5051098;28;20933;-55
2022/11/01 03:38:57;;;;;;;9.50;8.30;;;17.60;69.70;;;;;;5049476;28;20450;-54
2022/11/01 03:41:25;;;;;;;9.53;7.60;;;17.60;69.60;;;;;;5048808;28;20454;-54
2022/11/01 03:43:52;;;;;;;9.00;8.10;;;17.70;69.20;;;;;;5048742;28;20438;-55
2022/11/01 03:46:19;;;;;;;14.77;8.50;;;17.80;68.90;;;;;;5049587;28;20527;-54
2022/11/01 03:48:44;;;;;;;8.70;7.80;;;17.80;69.00;;;;;;5049799;28;20482;-54
2022/11/01 03:51:10;;;;;;;9.10;7.77;;;17.80;68.80;;;;;;5048429;28;20443;-54
2022/11/01 03:53:36;;;;;;;9.97;7.13;;;17.90;68.60;;;;;;5048587;28;20188;-53
2022/11/01 03:56:02;;;;;;;10.60;7.80;;;17.80;68.50;;;;;;5046680;28;20204;-52
2022/11/01 03:58:40;;;;;;;8.67;6.90;;;17.80;68.70;;;;;;5045585;28;20737;-54
2022/11/01 04:01:06;;;;;;;8.20;7.40;;;17.80;68.70;;;;;;5049558;28;20204;-55
2022/11/01 04:03:32;;;;;;;12.03;8.17;;;17.80;68.60;;;;;;5050110;28;20443;-52
2022/11/01 04:05:57;;;;;;;9.53;7.77;;;17.80;68.50;;;;;;5051433;28;20481;-55
2022/11/01 04:08:23;;;;;;;13.57;7.23;;;17.90;68.20;;;;;;5048997;28;20197;-54
2022/11/01 04:10:48;;;;;;;11.00;7.43;;;18.00;68.00;;;;;;5050450;28;20590;-53
2022/11/01 04:13:14;;;;;;;8.70;6.40;;;18.10;67.70;;;;;;5048809;28;20193;-53
2022/11/01 04:21:10;;;;;;;11.40;6.67;;;18.10;66.20;;;;;;5047342;28;20964;-58
2022/11/01 04:23:36;;;;;;;11.47;6.30;;;18.20;65.60;;;;;;5049249;28;20526;-54
2022/11/01 04:26:03;;;;;;;11.83;5.90;;;18.30;65.30;;;;;;5047851;28;20487;-54
2022/11/01 04:28:29;;;;;;;9.60;6.10;;;18.20;65.40;;;;;;5047501;28;20447;-52
2022/11/01 04:30:55;;;;;;;8.70;5.90;;;18.30;65.40;;;;;;5046106;28;20534;-54
2022/11/01 04:33:20;;;;;;;11.03;6.47;;;18.30;64.90;;;;;;5037158;28;20189;-51
2022/11/01 04:35:46;;;;;;;9.03;6.07;;;18.30;64.90;;;;;;5044660;28;20965;-54
2022/11/01 04:38:12;;;;;;;11.63;6.00;;;18.30;64.60;;;;;;5049919;28;20238;-54
2022/11/01 04:40:39;;;;;;;11.67;6.87;;;18.30;64.50;;;;;;5049324;28;20189;-55
2022/11/01 04:43:05;;;;;;;9.50;6.43;;;18.30;64.80;;;;;;5037009;28;20618;-51
2022/11/01 04:45:31;;;;;;;9.10;6.50;;;18.30;65.00;;;;;;5046906;28;20537;-54
2022/11/01 04:48:17;;;;;;;13.03;6.80;;;18.30;65.00;;;;;;5046996;28;20227;-53
2022/11/01 04:50:44;;;;;;;8.90;6.00;;;18.10;65.10;;;;;;5041077;28;20193;-54
2022/11/01 04:53:10;;;;;;;9.70;6.53;;;17.90;65.80;;;;;;5046114;28;20935;-51
2022/11/01 04:55:36;;;;;;;9.53;6.37;;;17.90;66.10;;;;;;5048087;28;20472;-52
2022/11/01 04:58:03;;;;;;;8.87;5.90;;;17.70;66.40;;;;;;5047950;28;20475;-51
2022/11/01 05:00:28;;;;;;;8.53;5.10;;;17.70;66.50;;;;;;5047250;28;20195;-51
2022/11/01 05:03:06;;;;;;;7.87;5.50;;;17.60;67.10;;;;;;5046269;28;20854;-54
2022/11/01 05:05:32;;;;;;;8.53;5.57;;;17.90;66.70;;;;;;5047224;28;20271;-51
2022/11/01 05:08:02;;;;;;;8.10;5.03;;;18.00;66.30;;;;;;5039184;28;20448;-54
2022/11/01 05:10:28;;;;;;;6.20;3.83;;;18.10;66.30;;;;;;5040166;28;20508;-54
2022/11/01 05:12:54;;;;;;;4.30;3.47;;;18.10;65.20;;;;;;5041428;28;20449;-55
2022/11/01 05:15:19;;;;;;;7.90;3.50;;;18.10;65.20;;;;;;5047677;28;20451;-53
2022/11/01 05:17:45;;;;;;;3.57;3.17;;;18.20;65.10;;;;;;5048465;28;20192;-55
2022/11/01 05:20:11;;;;;;;13.60;4.20;;;18.30;64.60;;;;;;5045997;28;20204;-52
2022/11/01 05:22:36;;;;;;;5.47;3.00;;;18.30;64.70;;;;;;5041687;28;20494;-51
2022/11/01 05:25:02;;;;;;;11.23;3.50;;;18.40;64.50;;;;;;5046560;28;20196;-53
2022/11/01 05:27:28;;;;;;;10.60;3.80;;;18.40;64.20;;;;;;5048412;28;20220;-51
2022/11/01 05:29:54;;;;;;;5.77;3.67;;;18.40;64.00;;;;;;5046966;28;20458;-54
2022/11/01 05:32:19;;;;;;;6.30;4.50;;;18.60;63.60;;;;;;5047256;28;20565;-51
2022/11/01 05:34:45;;;;;;;4.87;3.67;;;18.70;63.10;;;;;;5048683;28;20193;-54
2022/11/01 05:37:11;;;;;;;7.07;4.03;;;18.80;62.80;;;;;;5046047;28;20228;-53
2022/11/01 05:39:37;;;;;;;6.93;3.20;;;18.90;62.40;;;;;;5044121;28;20537;-53
2022/11/01 05:42:02;;;;;;;5.57;3.77;;;19.10;61.90;;;;;;5048901;28;20199;-51
2022/11/01 05:44:28;;;;;;;9.77;3.33;;;19.30;61.30;;;;;;5046108;28;20254;-54
2022/11/01 05:46:54;;;;;;;4.67;3.30;;;19.50;60.90;;;;;;5049724;28;20231;-53
2022/11/01 05:49:21;;;;;;;7.43;3.33;;;19.50;60.90;;;;;;5047876;28;20203;-55
2022/11/01 05:51:46;;;;;;;2.90;2.70;;;19.60;60.50;;;;;;5043142;28;20304;-52
2022/11/01 05:54:12;;;;;;;3.37;2.53;;;19.60;60.40;;;;;;5038825;28;20526;-53
2022/11/01 05:56:38;;;;;;;4.10;2.67;;;19.50;60.20;;;;;;5041227;28;20193;-53
2022/11/01 05:59:03;;;;;;;3.73;2.80;;;19.60;60.30;;;;;;5046538;28;20200;-55
2022/11/01 06:01:29;;;;;;;3.33;2.43;;;19.60;60.60;;;;;;5045855;28;20189;-55
2022/11/01 06:04:00;;;;;;;4.00;2.63;;;19.70;60.50;;;;;;5046242;28;20793;-54
2022/11/01 06:06:27;;;;;;;5.60;2.90;;;19.80;60.50;;;;;;5046732;28;20639;-55
2022/11/01 06:08:52;;;;;;;4.07;3.20;;;19.70;60.40;;;;;;5049440;28;20806;-55
2022/11/01 06:11:18;;;;;;;4.67;2.87;;;19.80;60.30;;;;;;5042878;28;20450;-55
2022/11/01 06:13:43;;;;;;;4.33;3.50;;;19.80;60.20;;;;;;5039086;28;20801;-54
2022/11/01 06:16:09;;;;;;;5.40;2.50;;;19.90;60.10;;;;;;5045095;28;20571;-55
2022/11/01 06:18:34;;;;;;;5.00;2.73;;;19.90;59.90;;;;;;5049311;28;20219;-53
2022/11/01 06:21:00;;;;;;;6.77;3.00;;;20.00;59.80;;;;;;5043361;28;20199;-52
2022/11/01 06:23:26;;;;;;;6.40;3.20;;;19.80;59.70;;;;;;5050576;28;20196;-58
2022/11/01 06:26:01;;;;;;;5.83;2.70;;;19.80;60.20;;;;;;5052494;28;20247;-58
2022/11/01 06:28:27;;;;;;;4.17;3.00;;;19.90;60.10;;;;;;5053015;28;20282;-58
2022/11/01 06:30:52;;;;;;;3.10;2.80;;;19.90;60.00;;;;;;5052284;28;20567;-58
2022/11/01 06:33:18;;;;;;;6.73;2.90;;;20.00;60.40;;;;;;5049002;28;20200;-58
2022/11/01 06:35:44;;;;;;;2.67;2.43;;;20.00;60.70;;;;;;5050427;28;20601;-58
2022/11/01 06:38:09;;;;;;;3.67;2.73;;;20.00;60.50;;;;;;5050788;28;20243;-58
2022/11/01 06:40:35;;;;;;;7.10;3.10;;;20.20;60.90;;;;;;5050994;28;20660;-58
2022/11/01 06:43:03;;;;;;;3.40;2.60;;;20.20;60.70;;;;;;5046135;28;20195;-58
2022/11/01 06:45:30;;;;;;;3.30;2.40;;;20.20;60.70;;;;;;5044677;28;20432;-58
2022/11/01 06:47:56;;;;;;;2.73;2.40;;;20.30;61.10;;;;;;5051981;28;20453;-58
2022/11/01 06:50:22;;;;;;;2.23;2.00;;;20.40;60.90;;;;;;5046753;28;20443;-58
2022/11/01 06:52:48;;;;;;;3.27;2.40;;;20.40;60.70;;;;;;5030415;28;20295;-58
2022/11/01 06:55:14;;;;;;;4.83;2.73;;;20.40;60.80;;;;;;5049235;28;20188;-58
2022/11/01 06:57:40;;;;;;;4.57;2.83;;;20.40;60.90;;;;;;5046864;28;20987;-58
2022/11/01 07:00:09;;;;;;;3.23;2.50;;;20.30;61.20;;;;;;5048206;28;20435;-58
2022/11/01 07:02:35;;;;;;;2.70;2.50;;;20.30;61.30;;;;;;5048383;28;20192;-58
2022/11/01 07:05:00;;;;;;;3.97;3.20;;;20.30;61.40;;;;;;5048567;28;20767;-59
2022/11/01 07:07:26;;;;;;;5.10;3.03;;;20.10;61.60;;;;;;5045209;28;20736;-59
2022/11/01 07:09:52;;;;;;;2.83;2.60;;;20.30;61.80;;;;;;5049353;28;20201;-59
2022/11/01 07:12:17;;;;;;;4.00;2.43;;;20.30;61.90;;;;;;5043529;28;20319;-58
2022/11/01 07:14:43;;;;;;;2.97;2.13;;;20.40;62.40;;;;;;5045891;28;20201;-58
2022/11/01 07:17:09;;;;;;;2.27;2.07;;;20.50;62.50;;;;;;5052300;28;20203;-58
2022/11/01 07:19:34;;;;;;;3.80;2.77;;;20.50;62.50;;;;;;5049629;28;20188;-58
2022/11/01 07:22:00;;;;;;;3.20;2.90;;;20.50;62.30;;;;;;5048063;28;20190;-58
2022/11/01 07:24:25;;;;;;;5.70;2.63;;;20.50;62.30;;;;;;5044442;28;20201;-59
2022/11/01 07:26:51;;;;;;;2.97;2.53;;;20.50;62.60;;;;;;5048423;28;20598;-59
2022/11/01 07:29:16;;;;;;;3.30;2.97;;;20.40;62.80;;;;;;5050170;28;20195;-59
2022/11/01 07:31:42;;;;;;;5.30;2.60;;;20.40;63.00;;;;;;5047037;28;20224;-59
2022/11/01 07:34:08;;;;;;;4.50;1.83;;;20.40;63.00;;;;;;5046771;28;20660;-58
2022/11/01 07:36:33;;;;;;;3.33;2.13;;;20.50;62.90;;;;;;5046173;28;20697;-58
2022/11/01 07:38:59;;;;;;;2.30;1.90;;;20.50;63.20;;;;;;5048667;28;20196;-58
2022/11/01 07:41:25;;;;;;;4.10;2.07;;;20.60;63.10;;;;;;5050336;28;20691;-58
2022/11/01 07:43:52;;;;;;;4.30;2.60;;;20.60;63.30;;;;;;5048640;28;20204;-59
2022/11/01 07:46:17;;;;;;;6.13;2.00;;;20.60;63.00;;;;;;5046823;28;20524;-58
2022/11/01 07:48:43;;;;;;;2.30;2.10;;;20.70;62.80;;;;;;5048025;28;20432;-58
2022/11/01 07:51:08;;;;;;;2.30;2.10;;;20.60;63.30;;;;;;5048295;28;20561;-59
2022/11/01 07:53:34;;;;;;;2.70;2.00;;;20.40;63.80;;;;;;5050573;28;20553;-58
2022/11/01 07:56:00;;;;;;;3.90;2.17;;;20.30;64.40;;;;;;5042022;28;20238;-58
2022/11/01 07:58:27;;;;;;;2.70;2.50;;;20.20;65.00;;;;;;5046115;28;20192;-58
2022/11/01 08:00:52;;;;;;;3.33;2.50;;;20.20;65.60;;;;;;5048285;28;20484;-58
2022/11/01 08:03:18;;;;;;;2.63;2.20;;;20.30;65.60;;;;;;5049031;28;20850;-59
2022/11/01 08:05:46;;;;;;;2.97;2.20;;;20.40;65.50;;;;;;5050769;28;20195;-59
2022/11/01 08:08:13;;;;;;;2.63;2.43;;;20.50;65.50;;;;;;5047434;28;20435;-58
2022/11/01 08:10:39;;;;;;;5.10;2.60;;;20.50;65.40;;;;;;5047522;28;20439;-59
2022/11/01 08:13:14;;;;;;;3.43;2.20;;;20.40;65.80;;;;;;5046874;28;20810;-59
2022/11/01 08:15:40;;;;;;;5.93;2.70;;;20.40;66.30;;;;;;5048989;28;20450;-59
2022/11/01 08:18:05;;;;;;;4.03;2.27;;;20.40;66.40;;;;;;5049603;28;21398;-59
2022/11/01 08:20:31;;;;;;;3.00;2.70;;;20.50;66.50;;;;;;5049006;28;20688;-59
2022/11/01 08:22:57;;;;;;;3.20;2.33;;;20.60;66.30;;;;;;5047011;28;20197;-59
2022/11/01 08:25:23;;;;;;;4.00;2.33;;;20.70;66.00;;;;;;5048137;28;20196;-59
2022/11/01 08:27:49;;;;;;;2.63;2.20;;;20.80;65.90;;;;;;5042768;28;20232;-59
2022/11/01 08:30:16;;;;;;;2.70;2.20;;;20.80;65.60;;;;;;5043193;28;20435;-58
2022/11/01 08:32:42;;;;;;;2.87;2.50;;;20.90;65.40;;;;;;5048960;28;20277;-59
2022/11/01 08:35:09;;;;;;;2.30;2.10;;;20.90;65.00;;;;;;5050178;28;20536;-59
2022/11/01 08:37:35;;;;;;;2.37;2.23;;;21.00;65.00;;;;;;5049765;28;20278;-59
2022/11/01 08:40:02;;;;;;;3.30;2.73;;;21.00;64.70;;;;;;5045550;28;20476;-58
2022/11/01 08:42:27;;;;;;;3.93;2.90;;;20.90;65.10;;;;;;5031635;28;20508;-58
2022/11/01 08:44:53;;;;;;;2.67;2.47;;;21.00;65.00;;;;;;5038257;28;20443;-58
2022/11/01 08:47:19;;;;;;;3.50;2.50;;;21.10;65.20;;;;;;5045392;28;20701;-59
2022/11/01 08:49:45;;;;;;;2.20;2.00;;;21.00;65.60;;;;;;5047861;28;20547;-60
2022/11/01 08:52:11;;;;;;;2.47;1.90;;;21.00;65.80;;;;;;5045359;28;20211;-57
2022/11/01 08:54:37;;;;;;;2.20;1.90;;;21.00;65.10;;;;;;5017531;28;20447;-57
2022/11/01 08:57:03;;;;;;;6.40;2.40;;;21.10;65.20;;;;;;5027564;28;20449;-58
2022/11/01 08:59:28;;;;;;;3.13;2.37;;;21.20;64.80;;;;;;5044895;28;20551;-57
2022/11/01 09:01:54;;;;;;;2.37;2.17;;;21.30;64.60;;;;;;5049029;28;20219;-57
2022/11/01 09:04:20;;;;;;;1.60;1.50;;;21.30;64.30;;;;;;5045861;28;20192;-57
2022/11/01 09:06:46;;;;;;;1.80;1.40;;;21.40;64.20;;;;;;5046355;28;20248;-57
2022/11/01 09:09:11;;;;;;;1.50;1.40;;;21.40;63.90;;;;;;5043772;28;20264;-57
2022/11/01 09:11:37;;;;;;;1.20;1.10;;;21.30;63.20;;;;;;5048480;28;20475;-57
2022/11/01 09:14:03;;;;;;;2.10;1.27;;;21.30;63.40;;;;;;5044374;28;20196;-56
2022/11/01 09:16:28;;;;;;;1.40;1.30;;;21.20;63.30;;;;;;5046585;28;20192;-57
2022/11/01 09:18:56;;;;;;;3.30;1.80;;;21.40;63.50;;;;;;5047174;28;20201;-57
2022/11/01 09:21:22;;;;;;;2.20;2.00;;;21.40;63.80;;;;;;5044464;28;20185;-56
2022/11/01 09:23:47;;;;;;;6.30;5.70;;;21.40;63.80;;;;;;5045817;28;20843;-56
2022/11/01 09:26:13;;;;;;;6.90;6.40;;;21.50;63.60;;;;;;5047606;28;20234;-56
2022/11/01 09:28:39;;;;;;;5.30;3.83;;;21.60;63.50;;;;;;5050245;28;20300;-56
2022/11/01 09:31:07;;;;;;;2.67;2.47;;;21.60;63.30;;;;;;5048734;28;20199;-56
2022/11/01 09:33:35;;;;;;;2.50;2.30;;;21.60;63.00;;;;;;5047353;28;20892;-56
2022/11/01 09:36:01;;;;;;;2.90;1.57;;;21.60;62.80;;;;;;5051018;28;20423;-57
2022/11/01 09:38:27;;;;;;;1.73;1.63;;;21.70;62.90;;;;;;5038353;28;20458;-56
2022/11/01 09:41:24;;;;;;;2.10;1.43;;;21.70;62.50;;;;;;5039889;28;20511;-56
2022/11/01 09:43:52;;;;;;;2.17;1.27;;;21.80;62.80;;;;;;5038583;28;20454;-56
2022/11/01 09:46:21;;;;;;;3.93;1.30;;;21.80;62.40;;;;;;5048979;28;20490;-56
2022/11/01 09:48:48;;;;;;;1.50;1.40;;;21.90;62.30;;;;;;5040247;28;20513;-56
2022/11/01 09:51:20;;;;;;;1.30;1.20;;;21.90;62.30;;;;;;5046471;28;20481;-56
2022/11/01 09:53:48;;;;;;;1.30;1.10;;;22.00;61.80;;;;;;5040660;28;20443;-57
2022/11/01 09:56:21;;;;;;;0.97;0.97;;;21.90;61.00;;;;;;5041234;28;20447;-56
2022/11/01 09:58:52;;;;;;;1.57;1.47;;;21.90;61.00;;;;;;5043595;28;20435;-56
2022/11/01 10:01:38;;;;;;;1.30;1.20;;;22.00;60.90;;;;;;5047280;28;20447;-56
2022/11/01 10:04:25;;;;;;;1.13;1.00;;;22.10;59.40;;;;;;5045031;28;20430;-56
2022/11/01 10:07:15;;;;;;;1.30;1.20;;;22.20;60.00;;;;;;5044638;28;20981;-56
2022/11/01 10:10:02;;;;;;;1.90;1.10;;;22.30;59.10;;;;;;5051975;28;20447;-56
2022/11/01 10:13:00;;;;;;;2.03;1.27;;;22.60;58.90;;;;;;5036164;28;21154;-56
2022/11/01 10:15:45;;;;;;;6.23;1.27;;;22.80;58.20;;;;;;5045594;28;20922;-56
2022/11/01 10:18:13;;;;;;;1.10;1.00;;;23.00;56.40;;;;;;5041360;28;20447;-56
2022/11/01 10:20:40;;;;;;;1.33;1.23;;;23.00;56.50;;;;;;5047243;28;20455;-56
2022/11/01 10:23:05;;;;;;;0.97;0.93;;;23.10;56.60;;;;;;5043708;28;20456;-55
2022/11/01 10:25:34;;;;;;;1.70;1.30;;;23.20;56.70;;;;;;5048700;28;20443;-55
2022/11/01 10:28:12;;;;;;;1.23;1.10;;;23.30;56.70;;;;;;5052302;28;20278;-54
2022/11/01 10:30:55;;;;;;;1.10;1.00;;;23.20;55.70;;;;;;5044658;28;20482;-54
2022/11/01 10:34:03;;;;;;;1.67;1.10;;;23.20;55.60;;;;;;5045314;28;22005;-54
2022/11/01 10:36:33;;;;;;;1.20;0.87;;;23.10;55.20;;;;;;4973010;28;20482;-55
2022/11/01 10:39:29;;;;;;;1.07;0.97;;;23.10;55.40;;;;;;4970466;28;20458;-54
2022/11/01 10:41:54;;;;;;;0.80;0.70;;;23.00;55.30;;;;;;5022614;28;20496;-55
2022/11/01 10:44:27;;;;;;;2.47;1.20;;;23.10;56.00;;;;;;5049212;28;20446;-54
2022/11/01 10:46:54;;;;;;;4.83;1.23;;;23.30;55.60;;;;;;5048295;28;20231;-55
2022/11/01 10:49:29;;;;;;;1.20;1.07;;;23.30;55.00;;;;;;5044455;28;20438;-56
2022/11/01 10:52:01;;;;;;;1.10;1.00;;;23.30;55.20;;;;;;5050853;28;20497;-54
2022/11/01 10:54:30;;;;;;;1.17;1.07;;;23.60;55.30;;;;;;5050392;28;20447;-54
2022/11/01 10:57:00;;;;;;;1.10;1.00;;;23.50;54.40;;;;;;5046718;28;20458;-54
2022/11/01 10:59:37;;;;;;;1.03;0.97;;;23.50;53.80;;;;;;5051747;28;20523;-54
2022/11/01 11:02:14;;;;;;;3.33;1.30;;;23.50;54.10;;;;;;5052573;28;20900;-54
2022/11/01 11:04:40;;;;;;;4.37;1.40;;;23.60;54.10;;;;;;5050762;28;20545;-54
2022/11/01 11:07:15;;;;;;;1.40;1.27;;;23.60;54.20;;;;;;5052100;28;21360;-55
2022/11/01 11:09:41;;;;;;;1.77;1.13;;;23.70;53.90;;;;;;5040017;28;20231;-55
2022/11/01 11:12:27;;;;;;;1.50;1.03;;;23.80;54.70;;;;;;5041653;28;20493;-55
2022/11/01 11:15:09;;;;;;;4.00;1.20;;;23.90;53.70;;;;;;5049125;28;20612;-55
2022/11/01 11:17:41;;;;;;;0.93;0.90;;;23.90;53.40;;;;;;5050346;28;20851;-55
2022/11/01 11:20:12;;;;;;;2.27;1.40;;;23.80;53.70;;;;;;5048720;28;20573;-55
2022/11/01 11:22:40;;;;;;;1.50;1.40;;;23.80;53.30;;;;;;5043849;28;20446;-54
2022/11/01 11:25:15;;;;;;;1.47;1.07;;;23.90;53.30;;;;;;5046633;28;21021;-56
2022/11/01 11:27:48;;;;;;;5.13;1.20;;;23.80;53.10;;;;;;5045478;28;20536;-55
2022/11/01 11:30:26;;;;;;;1.57;1.07;;;23.80;53.10;;;;;;5046724;28;20446;-55
2022/11/01 11:32:52;;;;;;;2.20;1.00;;;23.80;53.10;;;;;;5048447;28;20442;-55
2022/11/01 11:35:23;;;;;;;1.90;1.27;;;23.70;52.50;;;;;;5046068;28;20493;-53
2022/11/01 11:37:56;;;;;;;5.73;1.10;;;23.70;52.30;;;;;;5049130;28;20562;-52
2022/11/01 11:40:40;;;;;;;1.13;1.00;;;23.80;52.60;;;;;;5047156;28;20443;-53
2022/11/01 11:43:29;;;;;;;1.70;1.10;;;23.90;52.60;;;;;;5043962;28;20546;-54
2022/11/01 11:46:19;;;;;;;1.53;1.40;;;23.90;52.70;;;;;;5041577;28;20550;-53
2022/11/01 11:48:46;;;;;;;2.70;1.53;;;23.70;52.60;;;;;;5047933;28;20455;-54
2022/11/01 11:51:11;;;;;;;3.87;1.30;;;23.60;52.60;;;;;;5046909;28;20446;-53
2022/11/01 11:53:37;;;;;;;2.70;1.00;;;23.70;52.40;;;;;;5050548;28;20451;-53
2022/11/01 11:56:05;;;;;;;1.70;1.50;;;23.70;52.70;;;;;;5046654;28;20189;-54
2022/11/01 11:58:47;;;;;;;1.33;1.23;;;23.90;52.50;;;;;;5036003;28;20256;-53
2022/11/01 12:01:24;;;;;;;2.60;1.57;;;24.00;52.80;;;;;;5048421;28;20468;-54
2022/11/01 12:04:12;;;;;;;4.13;1.67;;;24.10;52.60;;;;;;5014755;28;20923;-53
2022/11/01 12:06:42;;;;;;;3.90;1.33;;;24.10;52.10;;;;;;5048470;28;20482;-54
2022/11/01 12:09:39;;;;;;;2.33;1.50;;;24.10;51.80;;;;;;5039843;28;20435;-54
2022/11/01 12:12:07;;;;;;;3.20;1.40;;;24.10;52.00;;;;;;5050175;28;20528;-54
2022/11/01 12:14:37;;;;;;;2.03;1.40;;;24.00;51.20;;;;;;5050576;28;20447;-53
2022/11/01 12:17:21;;;;;;;2.43;1.20;;;23.70;51.30;;;;;;5046301;28;20910;-53
2022/11/01 12:19:47;;;;;;;4.10;1.20;;;23.70;52.30;;;;;;5048489;28;20447;-52
2022/11/01 12:22:13;;;;;;;4.50;1.43;;;23.80;51.50;;;;;;5041231;28;20438;-53
2022/11/01 12:24:45;;;;;;;2.13;1.20;;;23.80;51.00;;;;;;5051576;28;20180;-52
2022/11/01 12:27:16;;;;;;;4.70;1.60;;;23.80;50.90;;;;;;5048994;28;20496;-53
2022/11/01 12:29:49;;;;;;;2.03;1.63;;;23.60;51.40;;;;;;5050549;28;20442;-53
2022/11/01 12:32:47;;;;;;;3.50;1.80;;;23.30;52.70;;;;;;5044779;28;20484;-53
2022/11/01 12:35:22;;;;;;;3.50;1.77;;;23.10;53.40;;;;;;5046652;28;20455;-53
2022/11/01 12:37:57;;;;;;;1.80;1.70;;;23.20;53.60;;;;;;5048437;28;20481;-51
2022/11/01 12:40:30;;;;;;;3.70;1.80;;;23.20;53.40;;;;;;5044280;28;20442;-52
2022/11/01 12:43:10;;;;;;;4.40;1.90;;;23.10;53.60;;;;;;5035862;28;20459;-52
2022/11/01 12:45:57;;;;;;;3.30;1.73;;;23.00;53.60;;;;;;5032960;28;20815;-53
2022/11/01 12:48:33;;;;;;;2.87;1.83;;;23.10;53.70;;;;;;5039468;28;20490;-52
2022/11/01 12:51:13;;;;;;;3.53;1.60;;;22.90;53.70;;;;;;5044387;28;20450;-53
2022/11/01 12:54:07;;;;;;;3.43;1.70;;;22.80;53.70;;;;;;5043029;28;20459;-54
2022/11/01 12:56:32;;;;;;;3.83;1.83;;;22.50;54.00;;;;;;5045261;28;20954;-54
2022/11/01 12:58:58;;;;;;;4.40;2.30;;;22.30;54.30;;;;;;5043397;28;20447;-54
2022/11/01 13:01:33;;;;;;;4.17;1.80;;;22.20;54.80;;;;;;5045010;28;20238;-53
2022/11/01 13:04:20;;;;;;;5.43;2.00;;;22.20;55.40;;;;;;5049819;28;20274;-58